Time;durP1;ratioP1;P1;durP2;ratioP2;P2;SDS_P1;SDS_P2;PMS_P1;PMS_P2;Temp;Humidity;BMP_temperature;BMP_pressure;BME280_temperature;BME280_humidity;BME280_pressure;Samples;Min_cycle;Max_cycle;Signal;HPM_P1;HPM_P2
2022/05/06 00:01:02;;;;;;;12.45;8.32;;;;;;;;;;5023168;28;20038;-61
2022/05/06 00:03:28;;;;;;;13.77;8.43;;;;;;;;;;5022333;28;20090;-62
2022/05/06 00:05:54;;;;;;;15.10;9.00;;;;;;;;;;5021267;28;20029;-61
2022/05/06 00:08:20;;;;;;;11.60;8.48;;;;;;;;;;5023407;28;20033;-62
2022/05/06 00:10:46;;;;;;;12.30;8.82;;;;;;;;;;5024902;28;20014;-62
2022/05/06 00:13:12;;;;;;;14.30;8.52;;;;;;;;;;5020520;28;20030;-61
2022/05/06 00:15:39;;;;;;;11.55;8.60;;;;;;;;;;5025789;28;20025;-62
2022/05/06 00:18:05;;;;;;;13.68;9.02;;;;;;;;;;5015664;28;20118;-62
2022/05/06 00:20:31;;;;;;;14.07;8.23;;;;;;;;;;5019638;28;20037;-62
2022/05/06 00:23:00;;;;;;;12.02;8.10;;;;;;;;;;5024103;28;20099;-62
2022/05/06 00:25:27;;;;;;;12.05;8.23;;;;;;;;;;5024036;28;20123;-61
2022/05/06 00:27:54;;;;;;;10.93;8.13;;;;;;;;;;5022187;28;20036;-61
2022/05/06 00:30:20;;;;;;;12.27;8.25;;;;;;;;;;5020608;28;20090;-62
2022/05/06 00:32:46;;;;;;;10.82;7.93;;;;;;;;;;5025441;28;20060;-61
2022/05/06 00:35:12;;;;;;;11.38;8.32;;;;;;;;;;5022859;28;20032;-60
2022/05/06 00:37:38;;;;;;;15.38;8.88;;;;;;;;;;5020863;28;20033;-61
2022/05/06 00:40:04;;;;;;;11.90;8.65;;;;;;;;;;5023219;28;20477;-62
2022/05/06 00:42:30;;;;;;;14.82;8.65;;;;;;;;;;5022780;28;20112;-63
2022/05/06 00:44:56;;;;;;;12.82;8.13;;;;;;;;;;5023680;28;20438;-62
2022/05/06 00:47:22;;;;;;;11.40;9.00;;;;;;;;;;5022494;28;20026;-60
2022/05/06 00:49:49;;;;;;;11.70;8.23;;;;;;;;;;5022548;28;20366;-62
2022/05/06 00:52:17;;;;;;;12.63;8.63;;;;;;;;;;5022061;28;20461;-61
2022/05/06 00:54:43;;;;;;;14.98;8.65;;;;;;;;;;5012858;28;20389;-61
2022/05/06 00:57:09;;;;;;;12.10;8.65;;;;;;;;;;5021320;28;20022;-62
2022/05/06 01:00:17;;;;;;;10.38;8.63;;;;;;;;;;5024909;28;20026;-61
2022/05/06 01:02:23;;;;;;;13.70;9.13;;;;;;;;;;5020161;28;20041;-61
2022/05/06 01:04:50;;;;;;;11.85;8.60;;;;;;;;;;5021049;28;20028;-61
2022/05/06 01:07:17;;;;;;;14.82;8.82;;;;;;;;;;5023649;28;20515;-62
2022/05/06 01:09:43;;;;;;;12.43;8.35;;;;;;;;;;5020251;28;20021;-61
2022/05/06 01:12:09;;;;;;;11.90;8.32;;;;;;;;;;5019968;28;20370;-62
2022/05/06 01:14:35;;;;;;;11.43;8.30;;;;;;;;;;5022548;28;20604;-60
2022/05/06 01:17:01;;;;;;;13.00;7.93;;;;;;;;;;5023507;28;20026;-61
2022/05/06 01:19:27;;;;;;;12.18;8.75;;;;;;;;;;5022062;28;20110;-61
2022/05/06 01:21:54;;;;;;;13.68;9.00;;;;;;;;;;5021434;28;20603;-61
2022/05/06 01:24:20;;;;;;;14.77;9.23;;;;;;;;;;5023595;28;20657;-62
2022/05/06 01:27:12;;;;;;;12.20;8.88;;;;;;;;;;5019073;28;20029;-62
2022/05/06 01:29:38;;;;;;;13.38;8.55;;;;;;;;;;5021095;28;21024;-61
2022/05/06 01:32:05;;;;;;;10.77;8.80;;;;;;;;;;5023792;28;20021;-60
2022/05/06 01:34:34;;;;;;;12.27;9.05;;;;;;;;;;5019400;28;20108;-61
2022/05/06 01:37:01;;;;;;;12.35;8.65;;;;;;;;;;5021385;28;20025;-61
2022/05/06 01:39:30;;;;;;;15.48;9.68;;;;;;;;;;5023736;28;20034;-60
2022/05/06 01:41:59;;;;;;;13.07;8.63;;;;;;;;;;5018352;28;20106;-61
2022/05/06 01:44:26;;;;;;;12.50;8.70;;;;;;;;;;5023336;28;20017;-61
2022/05/06 01:46:54;;;;;;;11.77;8.55;;;;;;;;;;5021474;28;20025;-62
2022/05/06 01:49:20;;;;;;;12.45;8.80;;;;;;;;;;5020491;28;20587;-62
2022/05/06 01:51:47;;;;;;;11.80;8.68;;;;;;;;;;5023023;28;20415;-62
2022/05/06 01:54:13;;;;;;;12.77;9.15;;;;;;;;;;5021774;28;20022;-61
2022/05/06 01:56:41;;;;;;;13.38;9.50;;;;;;;;;;5021867;28;20505;-62
2022/05/06 01:59:07;;;;;;;11.77;8.52;;;;;;;;;;5021574;28;20378;-61
2022/05/06 02:01:34;;;;;;;14.40;9.43;;;;;;;;;;5023417;28;20082;-60
2022/05/06 02:06:45;;;;;;;11.40;9.00;;;;;;;;;;5020681;28;20076;-61
2022/05/06 02:09:11;;;;;;;12.27;9.32;;;;;;;;;;5019633;28;20445;-61
2022/05/06 02:11:37;;;;;;;13.55;9.23;;;;;;;;;;5019137;28;20104;-62
2022/05/06 02:14:03;;;;;;;13.23;8.95;;;;;;;;;;5022051;28;20021;-61
2022/05/06 02:16:29;;;;;;;12.52;9.48;;;;;;;;;;5021337;28;20467;-60
2022/05/06 02:18:55;;;;;;;15.88;9.48;;;;;;;;;;5019683;28;20104;-61
2022/05/06 02:21:21;;;;;;;12.27;9.00;;;;;;;;;;5022554;28;20488;-61
2022/05/06 02:23:47;;;;;;;12.85;9.73;;;;;;;;;;5020539;28;20021;-62
2022/05/06 02:26:13;;;;;;;13.30;9.55;;;;;;;;;;5022175;28;20030;-62
2022/05/06 02:28:39;;;;;;;13.95;8.77;;;;;;;;;;5021493;28;20025;-61
2022/05/06 02:33:50;;;;;;;11.73;9.07;;;;;;;;;;5021746;28;20103;-62
2022/05/06 02:36:16;;;;;;;14.10;9.60;;;;;;;;;;5021711;28;20028;-60
2022/05/06 02:38:42;;;;;;;13.20;9.77;;;;;;;;;;5017465;28;20022;-61
2022/05/06 02:41:09;;;;;;;14.32;10.10;;;;;;;;;;5020613;28;20022;-62
2022/05/06 02:43:35;;;;;;;15.02;9.93;;;;;;;;;;5022057;28;20028;-62
2022/05/06 02:46:00;;;;;;;16.50;10.85;;;;;;;;;;5025555;28;20112;-61
2022/05/06 02:48:26;;;;;;;15.45;9.80;;;;;;;;;;5028024;28;20094;-62
2022/05/06 02:50:52;;;;;;;14.80;11.20;;;;;;;;;;5023988;28;20021;-62
2022/05/06 02:53:22;;;;;;;17.65;9.93;;;;;;;;;;5026515;28;20060;-61
2022/05/06 02:55:48;;;;;;;14.85;10.18;;;;;;;;;;5025158;28;20351;-62
2022/05/06 02:58:14;;;;;;;13.32;10.07;;;;;;;;;;5023779;28;20037;-62
2022/05/06 03:00:40;;;;;;;12.50;9.82;;;;;;;;;;5025990;28;20017;-61
2022/05/06 03:03:06;;;;;;;16.95;9.60;;;;;;;;;;5020304;28;20032;-61
2022/05/06 03:05:32;;;;;;;14.10;9.85;;;;;;;;;;5024347;28;20038;-61
2022/05/06 03:07:58;;;;;;;15.57;10.25;;;;;;;;;;5025912;28;20104;-62
2022/05/06 03:10:25;;;;;;;14.13;11.02;;;;;;;;;;5023617;28;20029;-61
2022/05/06 03:12:55;;;;;;;14.18;10.80;;;;;;;;;;5022928;28;20143;-60
2022/05/06 03:15:22;;;;;;;15.77;10.50;;;;;;;;;;5023308;28;20017;-62
2022/05/06 03:17:48;;;;;;;14.30;10.55;;;;;;;;;;5032211;28;20030;-62
2022/05/06 03:20:14;;;;;;;16.23;10.82;;;;;;;;;;5019627;28;20076;-61
2022/05/06 03:22:41;;;;;;;15.57;10.88;;;;;;;;;;5023682;28;20021;-61
2022/05/06 03:25:09;;;;;;;16.63;10.73;;;;;;;;;;5023502;28;20670;-62
2022/05/06 03:30:20;;;;;;;14.25;8.55;;;;;;;;;;5024367;28;20035;-60
2022/05/06 03:32:46;;;;;;;11.90;8.60;;;;;;;;;;5041807;28;20079;-60
2022/05/06 03:35:12;;;;;;;10.75;8.15;;;;;;;;;;5025446;28;20447;-61
2022/05/06 03:37:38;;;;;;;10.52;8.60;;;;;;;;;;5022977;28;20025;-61
2022/05/06 03:40:05;;;;;;;10.57;8.20;;;;;;;;;;5023369;28;20017;-61
2022/05/06 03:42:31;;;;;;;11.73;7.57;;;;;;;;;;5020268;28;20064;-62
2022/05/06 03:44:57;;;;;;;10.18;7.63;;;;;;;;;;5026395;28;20073;-61
2022/05/06 03:47:23;;;;;;;11.70;8.10;;;;;;;;;;5024397;28;20037;-61
2022/05/06 03:51:20;;;;;;;12.57;8.43;;;;;;;;;;5021183;28;20357;-61
2022/05/06 03:52:38;;;;;;;10.63;8.20;;;;;;;;;;5021899;28;20325;-62
2022/05/06 03:55:04;;;;;;;13.77;9.35;;;;;;;;;;5022487;28;20128;-61
2022/05/06 03:57:30;;;;;;;14.68;9.38;;;;;;;;;;5022909;28;20036;-61
2022/05/06 03:59:56;;;;;;;13.30;9.00;;;;;;;;;;5027137;28;20014;-60
2022/05/06 04:02:22;;;;;;;13.45;9.13;;;;;;;;;;5025585;28;20075;-62
2022/05/06 04:04:48;;;;;;;15.30;10.43;;;;;;;;;;5023709;28;20025;-62
2022/05/06 04:07:14;;;;;;;17.33;11.07;;;;;;;;;;5022077;28;20103;-61
2022/05/06 04:09:41;;;;;;;15.73;10.35;;;;;;;;;;5023068;28;20025;-62
2022/05/06 04:12:07;;;;;;;15.88;10.35;;;;;;;;;;5024641;28;20030;-61
2022/05/06 04:14:34;;;;;;;15.32;10.57;;;;;;;;;;5027461;28;20021;-61
2022/05/06 04:17:02;;;;;;;15.43;10.52;;;;;;;;;;5025712;28;20025;-61
2022/05/06 04:19:28;;;;;;;15.85;10.60;;;;;;;;;;5023958;28;20021;-60
2022/05/06 04:24:39;;;;;;;17.52;12.02;;;;;;;;;;5022218;28;20087;-62
2022/05/06 04:27:06;;;;;;;19.75;12.95;;;;;;;;;;5025391;28;20436;-61
2022/05/06 04:29:31;;;;;;;17.13;12.98;;;;;;;;;;5022837;28;20433;-61
2022/05/06 04:31:57;;;;;;;18.95;12.80;;;;;;;;;;5022808;28;20104;-62
2022/05/06 04:34:23;;;;;;;17.38;12.30;;;;;;;;;;5023089;28;20028;-62
2022/05/06 04:36:49;;;;;;;17.73;13.30;;;;;;;;;;5024644;28;20409;-62
2022/05/06 04:39:16;;;;;;;17.75;12.13;;;;;;;;;;5022541;28;20018;-61
2022/05/06 04:41:42;;;;;;;21.52;13.38;;;;;;;;;;5025757;28;20044;-62
2022/05/06 04:44:08;;;;;;;21.58;13.52;;;;;;;;;;5025192;28;20032;-61
2022/05/06 04:46:34;;;;;;;17.55;12.70;;;;;;;;;;5021366;28;20038;-61
2022/05/06 04:49:00;;;;;;;21.17;14.55;;;;;;;;;;5021579;28;20032;-60
2022/05/06 04:51:26;;;;;;;22.65;14.30;;;;;;;;;;5019859;28;20021;-62
2022/05/06 04:53:55;;;;;;;20.75;14.13;;;;;;;;;;5022698;28;21516;-60
2022/05/06 04:56:21;;;;;;;26.55;15.00;;;;;;;;;;5025243;28;20128;-61
2022/05/06 04:58:47;;;;;;;21.52;15.13;;;;;;;;;;5019523;28;20091;-62
2022/05/06 05:01:13;;;;;;;20.42;14.20;;;;;;;;;;5026364;28;20025;-61
2022/05/06 05:03:40;;;;;;;19.73;13.70;;;;;;;;;;5018836;28;20044;-61
2022/05/06 05:06:07;;;;;;;21.67;13.57;;;;;;;;;;5020398;28;20029;-60
2022/05/06 05:08:33;;;;;;;17.77;13.63;;;;;;;;;;5024018;28;20469;-60
2022/05/06 05:11:02;;;;;;;21.77;15.43;;;;;;;;;;5022010;28;20052;-61
2022/05/06 05:13:29;;;;;;;23.42;16.38;;;;;;;;;;5023958;28;20548;-61
2022/05/06 05:15:55;;;;;;;26.48;17.30;;;;;;;;;;5026162;28;20492;-61
2022/05/06 05:18:22;;;;;;;23.48;16.60;;;;;;;;;;5023366;28;20013;-61
2022/05/06 05:20:48;;;;;;;27.15;18.67;;;;;;;;;;5022098;28;20025;-63
2022/05/06 05:23:14;;;;;;;27.05;18.17;;;;;;;;;;5022015;28;20052;-63
2022/05/06 05:25:40;;;;;;;30.60;20.10;;;;;;;;;;5024008;28;20393;-62
2022/05/06 05:28:06;;;;;;;28.08;19.08;;;;;;;;;;5022815;28;20021;-62
2022/05/06 05:30:34;;;;;;;31.15;21.80;;;;;;;;;;5021743;28;20091;-62
2022/05/06 05:33:00;;;;;;;31.23;21.27;;;;;;;;;;5022585;28;20017;-61
2022/05/06 05:35:27;;;;;;;41.35;23.48;;;;;;;;;;5022563;28;20466;-62
2022/05/06 05:37:52;;;;;;;32.42;22.38;;;;;;;;;;5022758;28;20091;-62
2022/05/06 05:40:18;;;;;;;34.65;22.52;;;;;;;;;;5019497;28;20603;-62
2022/05/06 05:42:44;;;;;;;32.88;22.77;;;;;;;;;;5020156;28;20654;-62
2022/05/06 05:50:40;;;;;;;38.47;24.60;;;;;;;;;;5023863;28;20389;-61
2022/05/06 05:53:06;;;;;;;39.67;27.15;;;;;;;;;;5022599;28;20029;-62
2022/05/06 05:55:31;;;;;;;43.17;26.60;;;;;;;;;;5024871;28;20443;-62
2022/05/06 05:57:57;;;;;;;43.70;29.27;;;;;;;;;;5020099;28;20119;-62
2022/05/06 06:00:23;;;;;;;43.83;29.98;;;;;;;;;;5025534;28;20053;-62
2022/05/06 06:02:49;;;;;;;48.22;30.00;;;;;;;;;;5016374;28;20039;-62
2022/05/06 06:05:15;;;;;;;47.45;30.73;;;;;;;;;;5017445;28;20407;-62
2022/05/06 06:07:41;;;;;;;47.45;31.00;;;;;;;;;;5021535;28;20028;-62
2022/05/06 06:10:08;;;;;;;48.90;33.38;;;;;;;;;;5021561;28;20034;-62
2022/05/06 06:12:34;;;;;;;47.45;32.25;;;;;;;;;;5021281;28;20128;-61
2022/05/06 06:15:00;;;;;;;51.75;33.50;;;;;;;;;;5020655;28;20014;-62
2022/05/06 06:17:28;;;;;;;51.13;32.97;;;;;;;;;;5022591;28;20469;-62
2022/05/06 06:19:54;;;;;;;51.20;33.58;;;;;;;;;;5016803;28;20029;-61
2022/05/06 06:22:20;;;;;;;53.15;34.15;;;;;;;;;;5021057;28;20029;-62
2022/05/06 06:24:46;;;;;;;52.58;33.13;;;;;;;;;;5022753;28;20018;-61
2022/05/06 06:27:12;;;;;;;49.03;32.03;;;;;;;;;;5019706;28;20040;-62
2022/05/06 06:29:38;;;;;;;50.55;33.22;;;;;;;;;;5017146;28;20034;-62
2022/05/06 06:32:04;;;;;;;59.20;35.38;;;;;;;;;;5023884;28;20025;-62
2022/05/06 06:34:30;;;;;;;53.33;34.45;;;;;;;;;;5020312;28;20083;-61
2022/05/06 06:36:56;;;;;;;47.15;32.95;;;;;;;;;;5021584;28;20029;-61
2022/05/06 06:39:23;;;;;;;50.50;33.58;;;;;;;;;;5022632;28;20020;-62
2022/05/06 06:41:49;;;;;;;48.15;31.35;;;;;;;;;;5019895;28;20018;-62
2022/05/06 06:44:15;;;;;;;51.85;32.60;;;;;;;;;;5022398;28;20031;-62
2022/05/06 06:46:41;;;;;;;48.47;32.55;;;;;;;;;;5019210;28;20072;-62
2022/05/06 06:49:07;;;;;;;50.75;33.15;;;;;;;;;;5021624;28;20021;-61
2022/05/06 06:51:33;;;;;;;47.90;32.67;;;;;;;;;;5022600;28;20132;-62
2022/05/06 06:53:59;;;;;;;49.72;32.78;;;;;;;;;;5014821;28;20505;-61
2022/05/06 06:56:25;;;;;;;49.25;33.10;;;;;;;;;;5019956;28;20022;-62
2022/05/06 06:58:51;;;;;;;51.88;33.58;;;;;;;;;;5018874;28;20131;-62
2022/05/06 07:01:17;;;;;;;50.47;32.60;;;;;;;;;;5016181;28;20029;-59
2022/05/06 07:03:43;;;;;;;63.92;40.17;;;;;;;;;;5019753;28;20026;-62
2022/05/06 07:11:53;;;;;;;49.30;30.30;;;;;;;;;;5020773;28;20084;-62
2022/05/06 07:14:21;;;;;;;45.90;32.53;;;;;;;;;;5018761;28;20084;-62
2022/05/06 07:16:47;;;;;;;48.15;31.35;;;;;;;;;;5023717;28;20244;-62
2022/05/06 07:19:13;;;;;;;53.00;30.75;;;;;;;;;;5019135;28;20025;-62
2022/05/06 07:21:39;;;;;;;43.38;30.35;;;;;;;;;;5024545;28;20038;-62
2022/05/06 07:24:06;;;;;;;47.50;31.13;;;;;;;;;;5015286;28;20031;-63
2022/05/06 07:26:32;;;;;;;43.88;29.08;;;;;;;;;;5024294;28;20034;-62
2022/05/06 07:28:57;;;;;;;42.85;28.40;;;;;;;;;;5023131;28;20025;-63
2022/05/06 07:31:23;;;;;;;46.53;28.25;;;;;;;;;;5022888;28;20060;-63
2022/05/06 07:33:49;;;;;;;44.38;27.52;;;;;;;;;;5024901;28;20453;-62
2022/05/06 07:36:16;;;;;;;42.47;28.63;;;;;;;;;;5026653;28;20034;-63
2022/05/06 07:38:42;;;;;;;44.38;29.88;;;;;;;;;;5025246;28;20485;-63
2022/05/06 07:41:08;;;;;;;46.63;30.67;;;;;;;;;;5020170;28;20052;-64
2022/05/06 07:43:34;;;;;;;47.00;29.73;;;;;;;;;;5025115;28;20041;-63
2022/05/06 07:46:00;;;;;;;54.47;30.33;;;;;;;;;;5021762;28;20531;-63
2022/05/06 07:48:26;;;;;;;46.92;29.40;;;;;;;;;;5027731;28;20504;-63
2022/05/06 07:50:52;;;;;;;40.50;27.70;;;;;;;;;;5022572;28;20083;-64
2022/05/06 07:53:19;;;;;;;38.30;26.65;;;;;;;;;;5022182;28;20056;-63
2022/05/06 07:55:45;;;;;;;42.92;25.88;;;;;;;;;;5022334;28;20025;-64
2022/05/06 07:58:12;;;;;;;35.13;24.15;;;;;;;;;;5023294;28;20512;-64
2022/05/06 08:00:38;;;;;;;35.60;23.98;;;;;;;;;;5022771;28;20025;-64
2022/05/06 08:05:56;;;;;;;35.08;23.23;;;;;;;;;;5014422;28;20112;-64
2022/05/06 08:08:22;;;;;;;31.27;23.35;;;;;;;;;;5023980;28;20029;-64
2022/05/06 08:10:48;;;;;;;35.80;23.48;;;;;;;;;;5026423;28;20098;-64
2022/05/06 08:13:14;;;;;;;37.42;24.30;;;;;;;;;;5025255;28;20108;-64
2022/05/06 08:15:40;;;;;;;36.97;22.45;;;;;;;;;;5018216;28;20524;-64
2022/05/06 08:18:06;;;;;;;37.67;21.88;;;;;;;;;;5022606;28;20112;-64
2022/05/06 08:20:32;;;;;;;31.17;21.50;;;;;;;;;;5024573;28;20033;-64
2022/05/06 08:23:00;;;;;;;32.70;20.67;;;;;;;;;;5025601;28;20153;-64
2022/05/06 08:25:26;;;;;;;30.98;21.40;;;;;;;;;;5026511;28;20025;-64
2022/05/06 08:27:52;;;;;;;29.75;18.45;;;;;;;;;;5022153;28;20041;-64
2022/05/06 08:30:18;;;;;;;28.38;19.73;;;;;;;;;;5023906;28;20140;-65
2022/05/06 08:32:44;;;;;;;31.58;20.05;;;;;;;;;;5020621;28;20105;-65
2022/05/06 08:35:10;;;;;;;28.33;19.38;;;;;;;;;;5026114;28;20559;-65
2022/05/06 08:37:46;;;;;;;29.90;19.35;;;;;;;;;;5029238;28;20105;-65
2022/05/06 08:40:16;;;;;;;24.65;18.05;;;;;;;;;;5022622;28;20056;-65
2022/05/06 08:42:42;;;;;;;28.48;18.00;;;;;;;;;;5025591;28;20506;-65
2022/05/06 08:50:51;;;;;;;30.48;20.35;;;;;;;;;;5020772;28;20044;-65
2022/05/06 08:53:17;;;;;;;30.38;20.25;;;;;;;;;;5019331;28;20481;-65
2022/05/06 08:55:43;;;;;;;31.02;20.33;;;;;;;;;;5021988;28;20021;-65
2022/05/06 08:58:09;;;;;;;28.20;19.60;;;;;;;;;;5017313;28;20028;-65
2022/05/06 09:00:35;;;;;;;30.35;20.10;;;;;;;;;;5019361;28;20021;-65
2022/05/06 09:03:01;;;;;;;28.85;21.08;;;;;;;;;;5017602;28;20083;-65
2022/05/06 09:05:27;;;;;;;26.40;19.63;;;;;;;;;;5020485;28;20029;-65
2022/05/06 09:07:57;;;;;;;28.85;18.95;;;;;;;;;;5023753;28;20033;-65
2022/05/06 09:10:23;;;;;;;29.67;19.85;;;;;;;;;;5021760;28;20029;-65
2022/05/06 09:12:52;;;;;;;28.70;20.10;;;;;;;;;;5019009;28;20052;-65
2022/05/06 09:18:05;;;;;;;52.78;38.55;;;;;;;;;;5020021;28;20080;-65
2022/05/06 09:20:32;;;;;;;36.80;24.30;;;;;;;;;;5026023;28;20022;-64
2022/05/06 09:22:58;;;;;;;35.30;23.70;;;;;;;;;;5026173;28;20495;-65
2022/05/06 09:25:41;;;;;;;31.90;22.70;;;;;;;;;;5026133;28;20030;-65
2022/05/06 09:28:11;;;;;;;31.45;21.85;;;;;;;;;;5023056;28;20029;-65
2022/05/06 09:30:37;;;;;;;33.60;21.80;;;;;;;;;;5015055;28;20393;-65
2022/05/06 09:33:03;;;;;;;30.63;21.08;;;;;;;;;;5023400;28;20387;-65
2022/05/06 09:35:33;;;;;;;31.45;20.55;;;;;;;;;;5021417;28;20562;-65
2022/05/06 09:38:03;;;;;;;32.45;21.38;;;;;;;;;;5016599;28;20022;-66
2022/05/06 09:40:30;;;;;;;29.75;20.98;;;;;;;;;;5022262;28;20025;-65
2022/05/06 09:42:57;;;;;;;35.13;21.48;;;;;;;;;;5023438;28;20067;-66
2022/05/06 09:45:33;;;;;;;32.45;22.25;;;;;;;;;;5023533;28;20029;-66
2022/05/06 09:48:03;;;;;;;32.22;23.38;;;;;;;;;;5019430;28;20104;-66
2022/05/06 09:50:36;;;;;;;38.28;23.50;;;;;;;;;;5024047;28;20029;-65
2022/05/06 09:53:12;;;;;;;34.95;22.98;;;;;;;;;;5022694;28;20472;-64
2022/05/06 09:55:40;;;;;;;33.55;24.10;;;;;;;;;;5017513;28;20027;-65
2022/05/06 09:58:06;;;;;;;34.63;24.92;;;;;;;;;;5019784;28;20033;-64
2022/05/06 10:00:33;;;;;;;35.85;26.15;;;;;;;;;;5022496;28;20044;-64
2022/05/06 10:03:00;;;;;;;35.05;23.90;;;;;;;;;;5024329;28;20057;-65
2022/05/06 10:05:27;;;;;;;37.83;25.02;;;;;;;;;;5025041;28;20032;-65
2022/05/06 10:07:56;;;;;;;35.75;25.83;;;;;;;;;;5022262;28;20026;-66
2022/05/06 10:10:30;;;;;;;34.95;25.17;;;;;;;;;;5020095;28;20106;-67
2022/05/06 10:12:58;;;;;;;36.47;24.33;;;;;;;;;;5019880;28;20105;-65
2022/05/06 10:15:25;;;;;;;39.47;24.45;;;;;;;;;;5024408;28;20033;-66
2022/05/06 10:17:53;;;;;;;32.90;23.45;;;;;;;;;;5020882;28;20014;-66
2022/05/06 10:20:37;;;;;;;34.20;23.98;;;;;;;;;;5021102;28;20048;-66
2022/05/06 10:23:04;;;;;;;39.08;24.13;;;;;;;;;;5020905;28;20030;-66
2022/05/06 10:25:42;;;;;;;34.78;24.95;;;;;;;;;;5017507;28;20060;-67
2022/05/06 10:34:08;;;;;;;42.75;29.85;;;;;;;;;;5018956;28;20457;-66
2022/05/06 10:36:41;;;;;;;39.70;29.17;;;;;;;;;;5022129;28;20071;-66
2022/05/06 10:39:26;;;;;;;42.25;29.25;;;;;;;;;;5021496;28;20029;-66
2022/05/06 10:41:58;;;;;;;40.53;29.42;;;;;;;;;;5016211;28;20030;-66
2022/05/06 10:44:41;;;;;;;39.78;29.65;;;;;;;;;;5018286;28;20389;-67
2022/05/06 10:47:13;;;;;;;40.70;29.10;;;;;;;;;;5018412;28;20045;-66
2022/05/06 10:49:39;;;;;;;37.60;26.60;;;;;;;;;;5020970;28;20037;-67
2022/05/06 10:52:14;;;;;;;40.70;29.60;;;;;;;;;;5024443;28;20030;-66
2022/05/06 10:54:40;;;;;;;46.47;29.00;;;;;;;;;;5023882;28;20681;-66
2022/05/06 10:57:07;;;;;;;34.53;25.17;;;;;;;;;;5024157;28;20528;-67
2022/05/06 10:59:53;;;;;;;41.13;29.83;;;;;;;;;;5033041;28;20026;-66
2022/05/06 11:02:28;;;;;;;45.80;32.35;;;;;;;;;;5018442;28;20022;-67
2022/05/06 11:04:55;;;;;;;42.85;31.88;;;;;;;;;;5016909;28;20093;-67
2022/05/06 11:07:21;;;;;;;40.78;31.15;;;;;;;;;;5022179;28;20359;-66
2022/05/06 11:09:47;;;;;;;53.60;33.60;;;;;;;;;;5026244;28;20669;-67
2022/05/06 11:12:29;;;;;;;43.40;30.50;;;;;;;;;;5024395;28;20025;-66
2022/05/06 11:14:55;;;;;;;44.72;32.20;;;;;;;;;;5030147;28;20426;-67
2022/05/06 11:17:27;;;;;;;42.80;30.73;;;;;;;;;;5026849;28;20108;-67
2022/05/06 11:19:53;;;;;;;38.30;28.38;;;;;;;;;;5022960;28;20080;-65
2022/05/06 11:22:20;;;;;;;41.40;31.92;;;;;;;;;;5026652;28;20029;-61
2022/05/06 11:24:46;;;;;;;42.08;32.40;;;;;;;;;;5026828;28;20465;-62
2022/05/06 11:27:16;;;;;;;45.63;33.15;;;;;;;;;;5021560;28;20538;-62
2022/05/06 11:29:49;;;;;;;37.13;29.10;;;;;;;;;;5025394;28;20029;-62
2022/05/06 11:32:15;;;;;;;37.20;26.17;;;;;;;;;;5019325;28;20444;-62
2022/05/06 11:34:48;;;;;;;32.75;24.25;;;;;;;;;;5024607;28;20030;-63
2022/05/06 11:37:24;;;;;;;39.38;27.67;;;;;;;;;;5020849;28;20104;-61
2022/05/06 11:39:50;;;;;;;40.00;29.52;;;;;;;;;;5017586;28;20029;-58
2022/05/06 11:42:23;;;;;;;32.25;24.33;;;;;;;;;;5024401;28;20741;-60
2022/05/06 11:47:44;;;;;;;34.70;25.25;;;;;;;;;;5021727;28;20056;-62
2022/05/06 11:50:10;;;;;;;34.58;24.58;;;;;;;;;;5021244;28;20128;-62
2022/05/06 11:52:39;;;;;;;36.10;24.00;;;;;;;;;;5022811;28;20036;-63
2022/05/06 11:55:05;;;;;;;29.73;21.15;;;;;;;;;;5026759;28;20442;-63
2022/05/06 11:57:32;;;;;;;33.92;24.73;;;;;;;;;;5021215;28;20021;-62
2022/05/06 11:59:58;;;;;;;42.28;31.48;;;;;;;;;;5024117;28;20040;-62
2022/05/06 12:02:24;;;;;;;36.83;28.40;;;;;;;;;;5025788;28;20032;-62
2022/05/06 12:04:50;;;;;;;39.20;29.70;;;;;;;;;;5024294;28;20014;-62
2022/05/06 12:07:16;;;;;;;36.20;27.58;;;;;;;;;;5022163;28;20030;-62
2022/05/06 12:09:43;;;;;;;35.70;27.20;;;;;;;;;;5025253;28;20022;-62
2022/05/06 12:12:10;;;;;;;30.00;20.85;;;;;;;;;;5021665;28;20021;-62
2022/05/06 12:14:36;;;;;;;26.48;19.75;;;;;;;;;;5023123;28;20497;-63
2022/05/06 12:17:09;;;;;;;24.42;17.45;;;;;;;;;;5016384;28;20113;-62
2022/05/06 12:19:43;;;;;;;25.58;19.13;;;;;;;;;;5021299;28;20435;-62
2022/05/06 12:22:10;;;;;;;25.73;19.73;;;;;;;;;;5025800;28;20025;-61
2022/05/06 12:24:55;;;;;;;22.98;17.90;;;;;;;;;;5024375;28;20025;-61
2022/05/06 12:27:31;;;;;;;35.88;28.58;;;;;;;;;;5021654;28;20033;-62
2022/05/06 12:29:58;;;;;;;40.00;28.63;;;;;;;;;;5025395;28;20041;-62
2022/05/06 12:32:24;;;;;;;39.22;28.52;;;;;;;;;;5023936;28;20030;-62
2022/05/06 12:35:06;;;;;;;30.80;23.27;;;;;;;;;;5022049;28;20064;-62
2022/05/06 12:37:32;;;;;;;29.60;22.88;;;;;;;;;;5023155;28;20033;-62
2022/05/06 12:40:02;;;;;;;29.17;19.60;;;;;;;;;;5021379;28;20385;-62
2022/05/06 12:42:28;;;;;;;25.73;19.23;;;;;;;;;;5024149;28;20022;-62
2022/05/06 12:44:54;;;;;;;30.58;22.40;;;;;;;;;;5023271;28;20437;-62
2022/05/06 12:50:06;;;;;;;23.67;18.10;;;;;;;;;;5025126;28;20129;-62
2022/05/06 12:52:33;;;;;;;29.02;21.25;;;;;;;;;;5025414;28;20065;-62
2022/05/06 12:54:59;;;;;;;25.30;19.92;;;;;;;;;;5024088;28;20052;-61
2022/05/06 12:57:25;;;;;;;27.70;20.35;;;;;;;;;;5026151;28;20065;-62
2022/05/06 12:59:51;;;;;;;27.45;19.85;;;;;;;;;;5014924;28;20108;-62
2022/05/06 13:02:18;;;;;;;26.67;19.52;;;;;;;;;;5025854;28;20493;-62
2022/05/06 13:04:44;;;;;;;27.35;20.38;;;;;;;;;;5025231;28;20021;-62
2022/05/06 13:07:10;;;;;;;26.33;20.65;;;;;;;;;;5023117;28;20467;-62
2022/05/06 13:09:36;;;;;;;28.45;21.58;;;;;;;;;;5018052;28;20026;-63
2022/05/06 13:12:02;;;;;;;26.67;19.23;;;;;;;;;;5023683;28;20029;-62
2022/05/06 13:14:28;;;;;;;26.90;20.15;;;;;;;;;;5020117;28;20102;-62
2022/05/06 13:16:54;;;;;;;33.08;24.98;;;;;;;;;;5019921;28;20539;-62
2022/05/06 13:19:20;;;;;;;34.20;25.05;;;;;;;;;;5023806;28;20366;-62
2022/05/06 13:21:46;;;;;;;32.45;24.50;;;;;;;;;;5025635;28;20017;-62
2022/05/06 13:24:12;;;;;;;28.70;21.80;;;;;;;;;;5021979;28;20087;-62
2022/05/06 13:26:38;;;;;;;30.83;23.50;;;;;;;;;;5014377;28;20033;-62
2022/05/06 13:29:05;;;;;;;33.75;23.63;;;;;;;;;;5021212;28;20579;-62
2022/05/06 13:31:31;;;;;;;32.83;23.80;;;;;;;;;;5022906;28;20517;-62
2022/05/06 13:33:57;;;;;;;31.52;24.58;;;;;;;;;;5022676;28;20450;-62
2022/05/06 13:36:23;;;;;;;29.63;22.55;;;;;;;;;;5022225;28;20033;-62
2022/05/06 13:38:49;;;;;;;28.98;22.83;;;;;;;;;;5024958;28;20427;-63
2022/05/06 13:41:16;;;;;;;25.20;21.45;;;;;;;;;;5024501;28;20300;-62
2022/05/06 13:43:42;;;;;;;29.42;20.83;;;;;;;;;;5022205;28;20629;-62
2022/05/06 13:46:08;;;;;;;26.27;20.10;;;;;;;;;;5024842;28;20113;-62
2022/05/06 13:48:36;;;;;;;26.13;19.88;;;;;;;;;;5023037;28;20040;-62
2022/05/06 13:51:03;;;;;;;23.80;18.17;;;;;;;;;;5018332;28;20689;-61
2022/05/06 13:53:29;;;;;;;22.13;15.68;;;;;;;;;;5018570;28;20029;-62
2022/05/06 14:01:24;;;;;;;22.83;17.00;;;;;;;;;;5021474;28;20116;-61
2022/05/06 14:03:50;;;;;;;26.17;19.05;;;;;;;;;;5021026;28;20049;-62
2022/05/06 14:06:16;;;;;;;27.05;20.00;;;;;;;;;;5024966;28;20021;-62
2022/05/06 14:08:42;;;;;;;26.63;18.92;;;;;;;;;;5024546;28;20052;-62
2022/05/06 14:11:08;;;;;;;22.60;17.65;;;;;;;;;;5023375;28;20107;-62
2022/05/06 14:13:34;;;;;;;22.58;16.08;;;;;;;;;;5023545;28;20060;-62
2022/05/06 14:16:01;;;;;;;19.70;14.68;;;;;;;;;;5020119;28;20033;-63
2022/05/06 14:18:28;;;;;;;20.05;15.85;;;;;;;;;;5021984;28;20044;-62
2022/05/06 14:20:54;;;;;;;20.05;15.10;;;;;;;;;;5022054;28;20473;-61
2022/05/06 14:23:21;;;;;;;22.70;16.17;;;;;;;;;;5024162;28;20025;-61
2022/05/06 14:25:47;;;;;;;23.92;17.65;;;;;;;;;;5023669;28;20497;-63
2022/05/06 14:28:13;;;;;;;22.92;17.73;;;;;;;;;;5019724;28;20129;-62
2022/05/06 14:30:41;;;;;;;23.38;16.92;;;;;;;;;;5023059;28;20059;-62
2022/05/06 14:33:08;;;;;;;22.65;17.70;;;;;;;;;;5021356;28;20013;-62
2022/05/06 14:35:36;;;;;;;23.45;15.20;;;;;;;;;;5024075;28;20026;-62
2022/05/06 14:38:03;;;;;;;21.27;14.70;;;;;;;;;;5018851;28;20751;-62
2022/05/06 14:40:29;;;;;;;18.50;14.60;;;;;;;;;;5021298;28;20660;-62
2022/05/06 14:42:55;;;;;;;19.85;15.60;;;;;;;;;;5024328;28;20089;-61
2022/05/06 14:45:22;;;;;;;20.00;14.85;;;;;;;;;;5020644;28;20033;-62
2022/05/06 14:47:49;;;;;;;20.40;13.63;;;;;;;;;;5023185;28;20029;-62
2022/05/06 14:50:15;;;;;;;15.30;12.30;;;;;;;;;;5021719;28;20468;-62
2022/05/06 14:52:41;;;;;;;17.58;11.85;;;;;;;;;;5023482;28;20482;-62
2022/05/06 14:55:07;;;;;;;20.25;13.65;;;;;;;;;;5033294;28;20030;-61
2022/05/06 14:57:35;;;;;;;17.33;12.55;;;;;;;;;;5016191;28;20442;-62
2022/05/06 15:00:01;;;;;;;14.93;11.43;;;;;;;;;;5021508;28;20029;-62
2022/05/06 15:02:27;;;;;;;20.55;14.68;;;;;;;;;;5020925;28;20029;-62
2022/05/06 15:04:53;;;;;;;19.50;13.15;;;;;;;;;;5023312;28;20463;-62
2022/05/06 15:07:19;;;;;;;17.52;13.27;;;;;;;;;;5027294;28;20025;-62
2022/05/06 15:09:45;;;;;;;21.45;14.52;;;;;;;;;;5028933;28;20076;-60
2022/05/06 15:12:15;;;;;;;17.13;12.88;;;;;;;;;;5022559;28;20029;-61